createdAt,value
2023-02-13T00:00:09.371Z,7.53
2023-02-13T00:04:11.456Z,8.15
2023-02-13T00:08:13.170Z,6.95
2023-02-13T00:12:14.839Z,7.55
2023-02-13T00:16:16.606Z,7.65
2023-02-13T00:20:18.485Z,7.37
2023-02-13T00:24:20.310Z,6.85
2023-02-13T00:28:22.068Z,6.30
2023-02-13T00:32:23.813Z,7.32
2023-02-13T00:36:25.523Z,6.40
2023-02-13T00:40:27.211Z,6.90
2023-02-13T00:44:28.891Z,7.20
2023-02-13T00:48:32.802Z,6.70
2023-02-13T00:52:34.547Z,6.78
2023-02-13T00:56:36.223Z,7.07
2023-02-13T01:00:38.711Z,6.62
2023-02-13T01:04:40.427Z,7.75
2023-02-13T01:08:42.196Z,8.98
2023-02-13T01:12:43.911Z,7.62
2023-02-13T01:16:45.633Z,8.15
2023-02-13T01:20:57.757Z,8.13
2023-02-13T01:24:59.734Z,8.85
2023-02-13T01:29:01.751Z,8.77
2023-02-13T01:33:03.719Z,9.27
2023-02-13T01:37:05.466Z,9.65
2023-02-13T01:41:08.288Z,9.60
2023-02-13T01:45:30.422Z,9.18
2023-02-13T01:49:32.648Z,9.35
2023-02-13T01:53:42.912Z,9.20
2023-02-13T01:57:51.017Z,8.35
2023-02-13T02:01:54.039Z,9.80
2023-02-13T02:05:58.342Z,8.95
2023-02-13T02:10:03.936Z,9.60
2023-02-13T02:14:06.008Z,8.95
2023-02-13T02:18:22.047Z,8.85
2023-02-13T02:22:35.663Z,9.07
2023-02-13T02:26:55.367Z,9.00
2023-02-13T02:31:29.601Z,7.78
2023-02-13T02:35:52.423Z,7.45
2023-02-13T02:40:03.429Z,6.68
2023-02-13T02:44:42.446Z,6.90
2023-02-13T02:49:07.823Z,7.60
2023-02-13T02:53:27.916Z,7.07
2023-02-13T02:57:51.296Z,6.70
2023-02-13T03:02:13.481Z,7.12
2023-02-13T03:06:21.367Z,6.30
2023-02-13T03:10:49.932Z,6.53
2023-02-13T03:14:51.693Z,6.10
2023-02-13T03:19:16.462Z,5.78
2023-02-13T03:23:33.900Z,6.57
2023-02-13T03:28:26.512Z,6.35
2023-02-13T03:32:34.030Z,6.43
2023-02-13T03:37:18.297Z,6.90
2023-02-13T03:41:30.153Z,6.50
2023-02-13T03:45:57.251Z,6.30
2023-02-13T03:50:08.950Z,6.70
2023-02-13T03:54:43.834Z,6.75
2023-02-13T03:59:09.169Z,6.80
2023-02-13T04:03:28.794Z,7.12
2023-02-13T04:07:30.742Z,8.57
2023-02-13T04:11:42.363Z,7.25
2023-02-13T04:15:51.091Z,7.45
2023-02-13T04:19:53.274Z,8.23
2023-02-13T04:23:55.003Z,8.13
2023-02-13T04:27:56.677Z,7.90
2023-02-13T04:31:58.395Z,9.02
2023-02-13T04:36:00.117Z,8.35
2023-02-13T04:40:01.819Z,7.72
2023-02-13T04:44:03.694Z,7.85
2023-02-13T04:48:05.389Z,7.93
2023-02-13T04:52:07.080Z,8.05
2023-02-13T04:56:08.851Z,8.02
2023-02-13T05:00:11.801Z,9.15
2023-02-13T05:04:16.203Z,9.45
2023-02-13T05:08:18.045Z,8.48
2023-02-13T05:12:19.812Z,8.75
2023-02-13T05:16:21.595Z,8.80
2023-02-13T05:20:23.704Z,10.10
2023-02-13T05:24:25.635Z,9.07
2023-02-13T05:28:46.493Z,9.45
2023-02-13T05:32:50.703Z,9.27
2023-02-13T05:36:52.660Z,9.55
2023-02-13T05:40:54.412Z,10.02
2023-02-13T05:44:56.153Z,9.77
2023-02-13T05:48:57.848Z,10.57
2023-02-13T05:52:59.510Z,10.70
2023-02-13T05:57:01.209Z,10.43
2023-02-13T06:01:02.960Z,11.02
2023-02-13T06:05:04.961Z,11.02
2023-02-13T06:09:06.677Z,10.60
2023-02-13T06:13:08.323Z,11.38
2023-02-13T06:17:09.973Z,11.82
2023-02-13T06:21:11.668Z,12.70
2023-02-13T06:25:13.482Z,12.37
2023-02-13T06:29:15.182Z,12.35
2023-02-13T06:33:16.867Z,12.43
2023-02-13T06:37:18.502Z,12.20
2023-02-13T06:41:20.311Z,11.35
2023-02-13T06:45:22.103Z,12.75
2023-02-13T06:49:23.892Z,12.90
2023-02-13T06:53:25.729Z,12.20
2023-02-13T06:57:27.440Z,12.68
2023-02-13T07:01:29.158Z,12.23
2023-02-13T07:05:31.606Z,11.77
2023-02-13T07:09:33.309Z,12.43
2023-02-13T07:13:35.012Z,11.52
2023-02-13T07:17:36.734Z,12.52
2023-02-13T07:21:38.448Z,12.30
2023-02-13T07:25:40.134Z,12.65
2023-02-13T07:29:41.814Z,12.98
2023-02-13T07:33:43.616Z,12.75
2023-02-13T07:37:45.375Z,13.13
2023-02-13T07:41:47.141Z,11.70
2023-02-13T07:45:48.789Z,13.15
2023-02-13T07:49:50.544Z,12.55
2023-02-13T07:53:52.974Z,11.30
2023-02-13T07:57:55.075Z,11.77
2023-02-13T08:01:56.878Z,12.77
2023-02-13T08:05:58.923Z,11.65
2023-02-13T08:10:19.416Z,11.65
2023-02-13T08:14:26.050Z,10.98
2023-02-13T08:18:27.747Z,11.60
2023-02-13T08:22:29.460Z,10.02
2023-02-13T08:26:32.320Z,10.93
2023-02-13T08:30:34.012Z,9.85
2023-02-13T08:34:35.749Z,10.38
2023-02-13T08:38:37.497Z,10.13
2023-02-13T08:42:39.336Z,10.48
2023-02-13T08:46:41.007Z,10.60
2023-02-13T08:50:42.698Z,10.13
2023-02-13T08:54:44.430Z,9.00
2023-02-13T08:58:49.574Z,9.60
2023-02-13T09:02:51.389Z,9.18
2023-02-13T09:06:53.207Z,9.80
2023-02-13T09:11:03.839Z,9.65
2023-02-13T09:15:06.112Z,9.32
2023-02-13T09:19:07.830Z,8.95
2023-02-13T09:23:09.601Z,8.82
2023-02-13T09:27:11.321Z,9.32
2023-02-13T09:31:24.153Z,8.32
2023-02-13T09:35:26.012Z,8.38
2023-02-13T09:39:27.749Z,8.65
2023-02-13T09:43:33.862Z,7.75
2023-02-13T09:47:39.183Z,8.10
2023-02-13T09:51:44.054Z,7.95
2023-02-13T09:55:58.717Z,7.85
2023-02-13T10:00:17.381Z,7.05
2023-02-13T10:04:40.208Z,7.32
2023-02-13T10:09:16.585Z,7.22
2023-02-13T10:13:55.911Z,6.93
2023-02-13T10:18:06.283Z,6.85
2023-02-13T10:22:16.714Z,6.05
2023-02-13T10:26:27.117Z,6.00
2023-02-13T10:30:35.179Z,7.12
2023-02-13T10:34:46.636Z,6.28
2023-02-13T10:39:00.919Z,6.70
2023-02-13T10:43:09.998Z,6.30
2023-02-13T10:47:23.518Z,6.03
2023-02-13T10:51:51.390Z,6.78
2023-02-13T11:00:46.407Z,6.83
2023-02-13T11:04:49.313Z,6.87
2023-02-13T11:08:51.180Z,6.60
2023-02-13T11:12:53.739Z,7.00
2023-02-13T11:16:58.468Z,6.78
2023-02-13T11:21:14.310Z,6.07
2023-02-13T11:25:23.118Z,6.27
2023-02-13T11:29:31.815Z,5.53
2023-02-13T11:33:33.509Z,6.40
2023-02-13T11:37:35.238Z,6.70
2023-02-13T11:41:41.753Z,5.93
2023-02-13T11:45:43.562Z,10.25
2023-02-13T11:49:47.495Z,6.53
2023-02-13T11:53:49.267Z,6.43
2023-02-13T11:57:59.923Z,5.95
2023-02-13T12:02:09.637Z,6.05
2023-02-13T12:06:15.788Z,6.40
2023-02-13T12:10:31.400Z,5.32
2023-02-13T12:14:39.565Z,5.20
2023-02-13T12:18:46.354Z,4.80
2023-02-13T12:22:58.915Z,5.12
2023-02-13T12:27:12.368Z,5.12
2023-02-13T12:31:33.503Z,4.87
2023-02-13T12:35:46.383Z,4.80
2023-02-13T12:39:59.057Z,4.68
2023-02-13T12:44:19.486Z,5.18
2023-02-13T12:48:42.994Z,4.40
2023-02-13T12:53:10.083Z,4.07
2023-02-13T12:57:39.182Z,4.67
2023-02-13T13:01:49.688Z,4.03
2023-02-13T13:06:12.238Z,4.37
2023-02-13T13:10:29.213Z,4.62
2023-02-13T13:15:01.235Z,4.60
2023-02-13T13:19:31.870Z,4.43
2023-02-13T13:24:00.950Z,4.07
2023-02-13T13:28:11.877Z,4.28
2023-02-13T13:32:18.889Z,3.80
2023-02-13T13:36:45.335Z,3.87
2023-02-13T13:41:10.816Z,3.30
2023-02-13T13:45:31.031Z,2.67
2023-02-13T13:49:53.947Z,3.85
2023-02-13T13:54:04.834Z,3.37
2023-02-13T13:58:23.503Z,2.78
2023-02-13T14:02:25.136Z,3.00
2023-02-13T14:06:49.602Z,2.55
2023-02-13T14:11:02.495Z,2.55
2023-02-13T14:15:04.574Z,3.03
2023-02-13T14:19:23.132Z,2.75
2023-02-13T14:23:30.802Z,2.65
2023-02-13T14:27:38.958Z,2.80
2023-02-13T14:31:43.710Z,2.75
2023-02-13T14:35:45.525Z,2.37
2023-02-13T14:40:17.459Z,2.67
2023-02-13T14:44:55.821Z,2.47
2023-02-13T14:49:17.006Z,2.42
2023-02-13T14:53:26.296Z,2.30
2023-02-13T14:57:46.832Z,2.20
2023-02-13T15:01:53.535Z,2.30
2023-02-13T15:06:01.007Z,2.22
2023-02-13T15:10:24.772Z,2.10
2023-02-13T15:14:36.587Z,2.30
2023-02-13T15:18:52.446Z,1.92
2023-02-13T15:22:54.841Z,2.40
2023-02-13T15:27:02.672Z,2.17
2023-02-13T15:31:07.275Z,1.80
2023-02-13T15:35:32.724Z,2.15
2023-02-13T15:39:34.732Z,2.05
2023-02-13T15:43:43.624Z,2.22
2023-02-13T15:47:46.906Z,1.87
2023-02-13T15:51:50.209Z,1.90
2023-02-13T15:56:04.363Z,2.15
2023-02-13T16:00:07.631Z,1.75
2023-02-13T16:04:10.742Z,1.80
2023-02-13T16:08:31.999Z,1.60
2023-02-13T16:12:33.731Z,1.40
2023-02-13T16:16:50.480Z,1.50
2023-02-13T16:20:56.446Z,2.70
2023-02-13T16:25:30.063Z,1.37
2023-02-13T16:29:31.898Z,1.48
2023-02-13T16:33:36.025Z,1.70
2023-02-13T16:37:50.697Z,1.45
2023-02-13T16:41:53.124Z,2.40
2023-02-13T16:45:55.021Z,1.65
2023-02-13T16:49:57.335Z,1.73
2023-02-13T16:54:23.962Z,1.90
2023-02-13T16:58:27.326Z,1.77
2023-02-13T17:02:30.162Z,1.27
2023-02-13T17:06:31.871Z,1.70
2023-02-13T17:10:39.080Z,1.87
2023-02-13T17:14:41.544Z,2.17
2023-02-13T17:18:43.229Z,3.20
2023-02-13T17:22:50.462Z,2.87
2023-02-13T17:30:57.050Z,1.67
2023-02-13T17:34:59.020Z,1.83
2023-02-13T17:39:00.709Z,1.67
2023-02-13T17:43:03.184Z,1.90
2023-02-13T17:47:04.889Z,2.97
2023-02-13T17:51:06.606Z,9.70
2023-02-13T17:55:20.976Z,8.30
2023-02-13T17:59:25.422Z,4.45
2023-02-13T18:03:27.321Z,4.32
2023-02-13T18:07:29.065Z,2.92
2023-02-13T18:11:31.111Z,3.33
2023-02-13T18:15:40.961Z,3.37
2023-02-13T18:19:42.758Z,3.03
2023-02-13T18:23:44.519Z,2.85
2023-02-13T18:27:46.797Z,2.55
2023-02-13T18:31:48.618Z,2.15
2023-02-13T18:35:50.429Z,1.77
2023-02-13T18:39:52.107Z,2.00
2023-02-13T18:43:57.427Z,2.05
2023-02-13T18:47:59.173Z,2.20
2023-02-13T18:52:02.191Z,2.08
2023-02-13T18:56:06.150Z,1.70
2023-02-13T19:00:08.337Z,3.62
2023-02-13T19:04:11.097Z,6.15
2023-02-13T19:08:12.789Z,2.50
2023-02-13T19:12:14.528Z,2.92
2023-02-13T19:16:18.469Z,3.15
2023-02-13T19:20:20.539Z,2.85
2023-02-13T19:24:22.273Z,3.33
2023-02-13T19:28:24.012Z,3.28
2023-02-13T19:32:25.727Z,3.28
2023-02-13T19:36:29.005Z,4.60
2023-02-13T19:40:30.723Z,3.33
2023-02-13T19:44:32.358Z,3.87
2023-02-13T19:48:34.386Z,4.30
2023-02-13T19:52:36.057Z,4.12
2023-02-13T19:56:39.578Z,4.30
2023-02-13T20:00:41.583Z,3.65
2023-02-13T20:04:43.872Z,4.05
2023-02-13T20:08:46.601Z,4.20
2023-02-13T20:12:53.598Z,4.07
2023-02-13T20:16:55.363Z,4.65
2023-02-13T20:20:57.599Z,4.75
2023-02-13T20:24:59.494Z,4.70
2023-02-13T20:29:02.007Z,5.07
2023-02-13T20:33:03.764Z,4.50
2023-02-13T20:37:05.659Z,4.82
2023-02-13T20:41:19.321Z,4.25
2023-02-13T20:45:21.155Z,4.50
2023-02-13T20:49:23.347Z,4.03
2023-02-13T20:53:25.371Z,4.20
2023-02-13T20:57:27.798Z,4.97
2023-02-13T21:01:37.138Z,4.55
2023-02-13T21:05:40.159Z,4.70
2023-02-13T21:09:42.012Z,4.28
2023-02-13T21:13:44.051Z,4.22
2023-02-13T21:17:45.719Z,4.03
2023-02-13T21:21:47.835Z,4.12
2023-02-13T21:25:49.888Z,3.83
2023-02-13T21:29:51.663Z,4.43
2023-02-13T21:33:53.944Z,4.18
2023-02-13T21:37:55.649Z,4.00
2023-02-13T21:41:57.588Z,3.87
2023-02-13T21:46:10.521Z,3.92
2023-02-13T21:50:12.594Z,4.07
2023-02-13T21:54:14.506Z,4.37
2023-02-13T21:58:16.175Z,3.78
2023-02-13T22:02:18.152Z,4.22
2023-02-13T22:06:21.107Z,4.32
2023-02-13T22:10:22.793Z,5.10
2023-02-13T22:14:24.612Z,4.60
2023-02-13T22:18:26.506Z,4.57
2023-02-13T22:22:28.157Z,4.87
2023-02-13T22:26:36.025Z,5.05
2023-02-13T22:30:37.776Z,4.78
2023-02-13T22:34:39.564Z,4.20
2023-02-13T22:38:42.184Z,5.03
2023-02-13T22:42:43.878Z,4.30
2023-02-13T22:46:45.560Z,4.40
2023-02-13T22:50:47.262Z,4.53
2023-02-13T22:54:48.978Z,4.70
2023-02-13T22:58:50.989Z,4.80
2023-02-13T23:02:52.979Z,5.12
2023-02-13T23:06:54.651Z,4.87
2023-02-13T23:11:15.301Z,4.10
2023-02-13T23:15:17.055Z,4.12
2023-02-13T23:19:19.482Z,4.28
2023-02-13T23:23:22.204Z,4.00
2023-02-13T23:27:23.865Z,4.57
2023-02-13T23:31:25.593Z,4.22
2023-02-13T23:35:27.910Z,4.18
2023-02-13T23:39:29.618Z,3.92
2023-02-13T23:43:31.293Z,4.18
2023-02-13T23:47:32.976Z,4.20
2023-02-13T23:51:34.828Z,3.62
2023-02-13T23:55:36.511Z,3.83
2023-02-13T23:59:38.586Z,4.45
